createdAt,value
2018-09-13T00:01:16.612Z,14.00
2018-09-13T00:03:45.267Z,14.20
2018-09-13T00:06:13.772Z,14.00
2018-09-13T00:08:42.361Z,14.00
2018-09-13T00:11:11.055Z,13.90
2018-09-13T00:13:39.907Z,14.10
2018-09-13T00:16:08.442Z,14.10
2018-09-13T00:18:37.074Z,13.90
2018-09-13T00:21:05.703Z,13.90
2018-09-13T00:23:34.628Z,14.00
2018-09-13T00:26:03.100Z,14.20
2018-09-13T00:28:31.590Z,14.00
2018-09-13T00:31:00.043Z,13.90
2018-09-13T00:33:28.522Z,13.80
2018-09-13T00:35:57.084Z,13.90
2018-09-13T00:38:25.584Z,13.80
2018-09-13T00:40:54.334Z,13.80
2018-09-13T00:43:22.804Z,13.90
2018-09-13T00:45:51.942Z,13.80
2018-09-13T00:48:20.412Z,13.90
2018-09-13T00:50:48.902Z,13.80
2018-09-13T00:53:17.492Z,13.80
2018-09-13T00:55:46.005Z,14.00
2018-09-13T00:58:14.534Z,14.10
2018-09-13T01:00:43.171Z,13.90
2018-09-13T01:03:11.867Z,13.80
2018-09-13T01:05:40.346Z,14.00
2018-09-13T01:08:08.806Z,13.90
2018-09-13T01:10:37.316Z,13.90
2018-09-13T01:13:05.994Z,13.90
2018-09-13T01:15:35.373Z,13.90
2018-09-13T01:18:03.955Z,13.90
2018-09-13T01:20:32.442Z,13.90
2018-09-13T01:23:00.936Z,13.90
2018-09-13T01:25:29.427Z,13.80
2018-09-13T01:27:57.914Z,13.90
2018-09-13T01:30:26.434Z,14.10
2018-09-13T01:32:55.169Z,13.90
2018-09-13T01:35:23.617Z,14.00
2018-09-13T01:37:52.078Z,13.90
2018-09-13T01:40:20.564Z,13.90
2018-09-13T01:42:49.265Z,14.00
2018-09-13T01:45:17.748Z,13.80
2018-09-13T01:47:46.317Z,13.80
2018-09-13T01:50:14.808Z,13.80
2018-09-13T01:52:43.355Z,13.80
2018-09-13T01:55:11.798Z,13.80
2018-09-13T01:57:40.273Z,13.80
2018-09-13T02:00:08.805Z,13.80
2018-09-13T02:02:37.277Z,13.80
2018-09-13T02:05:05.910Z,13.90
2018-09-13T02:07:34.369Z,13.80
2018-09-13T02:10:02.989Z,13.80
2018-09-13T02:12:31.687Z,13.80
2018-09-13T02:15:00.187Z,13.80
2018-09-13T02:17:28.729Z,13.80
2018-09-13T02:19:57.196Z,13.80
2018-09-13T02:22:25.821Z,13.80
2018-09-13T02:24:54.449Z,13.80
2018-09-13T02:27:22.915Z,13.80
2018-09-13T02:29:51.443Z,14.00
2018-09-13T02:32:20.395Z,13.80
2018-09-13T02:34:48.897Z,13.80
2018-09-13T02:37:17.374Z,14.10
2018-09-13T02:39:45.799Z,13.70
2018-09-13T02:42:14.943Z,13.80
2018-09-13T02:44:43.626Z,13.80
2018-09-13T02:47:12.123Z,13.60
2018-09-13T02:49:40.702Z,13.80
2018-09-13T02:52:09.337Z,13.80
2018-09-13T02:54:37.823Z,13.80
2018-09-13T02:57:06.354Z,13.70
2018-09-13T02:59:34.876Z,13.80
2018-09-13T03:02:03.512Z,13.80
2018-09-13T03:04:32.312Z,13.80
2018-09-13T03:07:00.950Z,13.80
2018-09-13T03:09:29.710Z,13.70
2018-09-13T03:11:58.155Z,13.80
2018-09-13T03:14:26.919Z,13.80
2018-09-13T03:16:55.366Z,13.70
2018-09-13T03:19:23.921Z,13.80
2018-09-13T03:21:52.377Z,13.70
2018-09-13T03:24:20.896Z,13.70
2018-09-13T03:26:49.394Z,13.70
2018-09-13T03:29:17.998Z,14.00
2018-09-13T03:31:46.768Z,13.80
2018-09-13T03:34:15.517Z,13.80
2018-09-13T03:36:44.217Z,13.80
2018-09-13T03:39:13.471Z,13.80
2018-09-13T03:41:42.109Z,13.80
2018-09-13T03:44:10.603Z,13.80
2018-09-13T03:46:39.225Z,13.80
2018-09-13T03:49:07.852Z,13.70
2018-09-13T03:51:36.360Z,13.70
2018-09-13T03:54:04.885Z,13.80
2018-09-13T03:56:33.499Z,13.70
2018-09-13T03:59:02.058Z,13.80
2018-09-13T04:01:30.545Z,13.70
2018-09-13T04:03:59.268Z,13.70
2018-09-13T04:06:27.804Z,14.00
2018-09-13T04:08:56.631Z,13.80
2018-09-13T04:11:25.123Z,13.80
2018-09-13T04:13:54.137Z,13.80
2018-09-13T04:16:22.615Z,13.70
2018-09-13T04:18:51.222Z,13.70
2018-09-13T04:21:19.841Z,13.90
2018-09-13T04:23:48.379Z,13.80
2018-09-13T04:26:16.868Z,13.80
2018-09-13T04:28:45.353Z,13.80
2018-09-13T04:31:13.987Z,13.80
2018-09-13T04:33:42.634Z,13.80
2018-09-13T04:36:11.476Z,13.80
2018-09-13T04:38:39.936Z,13.80
2018-09-13T04:41:08.497Z,13.80
2018-09-13T04:43:37.112Z,13.80
2018-09-13T04:46:06.260Z,13.80
2018-09-13T04:48:34.793Z,13.90
2018-09-13T04:51:03.598Z,14.10
2018-09-13T04:53:33.062Z,13.80
2018-09-13T04:56:01.688Z,13.80
2018-09-13T04:58:30.216Z,13.70
2018-09-13T05:00:58.724Z,13.80
2018-09-13T05:03:27.226Z,13.70
2018-09-13T05:05:55.848Z,13.80
2018-09-13T05:08:24.893Z,13.80
2018-09-13T05:10:53.492Z,13.70
2018-09-13T05:13:21.994Z,13.80
2018-09-13T05:15:50.606Z,13.70
2018-09-13T05:18:19.083Z,13.80
2018-09-13T05:20:47.548Z,13.70
2018-09-13T05:23:16.070Z,13.80
2018-09-13T05:25:44.784Z,13.90
2018-09-13T05:28:13.509Z,13.70
2018-09-13T05:30:42.124Z,13.80
2018-09-13T05:33:10.585Z,13.80
2018-09-13T05:35:39.335Z,13.80
2018-09-13T05:38:07.838Z,13.80
2018-09-13T05:40:36.326Z,13.70
2018-09-13T05:43:04.905Z,13.80
2018-09-13T05:45:33.507Z,13.80
2018-09-13T05:48:02.339Z,13.80
2018-09-13T05:50:32.076Z,14.10
2018-09-13T05:53:00.707Z,13.80
2018-09-13T05:55:29.659Z,13.80
2018-09-13T05:57:58.151Z,13.80
2018-09-13T06:00:26.822Z,14.10
2018-09-13T06:02:55.723Z,13.80
2018-09-13T06:05:24.223Z,13.80
2018-09-13T06:07:52.850Z,13.90
2018-09-13T06:10:21.311Z,14.00
2018-09-13T06:12:49.825Z,13.90
2018-09-13T06:15:18.327Z,13.90
2018-09-13T06:17:46.805Z,14.20
2018-09-13T06:20:15.334Z,14.00
2018-09-13T06:22:44.485Z,14.10
2018-09-13T06:25:12.960Z,14.10
2018-09-13T06:27:41.461Z,14.00
2018-09-13T06:30:09.988Z,14.20
2018-09-13T06:32:38.704Z,14.10
2018-09-13T06:35:07.399Z,14.10
2018-09-13T06:37:35.909Z,14.20
2018-09-13T06:40:04.493Z,14.00
2018-09-13T06:42:33.135Z,14.20
2018-09-13T06:45:01.786Z,14.40
2018-09-13T06:47:30.488Z,14.30
2018-09-13T06:49:59.199Z,14.50
2018-09-13T06:52:27.746Z,14.60
2018-09-13T06:54:56.552Z,14.50
2018-09-13T06:57:25.683Z,14.60
2018-09-13T06:59:54.517Z,14.40
2018-09-13T07:02:23.086Z,14.40
2018-09-13T07:09:26.569Z,14.40
2018-09-13T07:11:55.156Z,14.40
2018-09-13T07:14:23.637Z,14.50
2018-09-13T07:16:52.312Z,14.40
2018-09-13T07:19:20.816Z,14.50
2018-09-13T07:21:49.287Z,14.50
2018-09-13T07:24:17.794Z,14.60
2018-09-13T07:26:46.312Z,14.50
2018-09-13T07:29:14.833Z,14.70
2018-09-13T07:31:43.362Z,14.50
2018-09-13T07:34:11.844Z,14.70
2018-09-13T07:36:40.362Z,15.20
2018-09-13T07:39:10.900Z,15.00
2018-09-13T07:41:39.511Z,14.90
2018-09-13T07:44:08.010Z,14.80
2018-09-13T07:46:36.601Z,14.70
2018-09-13T07:49:05.203Z,14.80
2018-09-13T07:51:33.673Z,14.80
2018-09-13T07:54:02.154Z,14.80
2018-09-13T07:56:30.718Z,14.80
2018-09-13T07:58:59.305Z,15.20
2018-09-13T08:01:28.033Z,15.20
2018-09-13T08:03:56.981Z,15.10
2018-09-13T08:06:25.787Z,15.00
2018-09-13T08:08:54.349Z,14.90
2018-09-13T08:11:22.921Z,15.00
2018-09-13T08:13:51.549Z,15.00
2018-09-13T08:16:20.120Z,15.00
2018-09-13T08:18:48.753Z,15.50
2018-09-13T08:21:17.702Z,15.20
2018-09-13T08:23:46.474Z,15.50
2018-09-13T08:26:15.015Z,15.60
2018-09-13T08:28:43.487Z,15.40
2018-09-13T08:31:12.009Z,15.30
2018-09-13T08:33:40.564Z,15.30
2018-09-13T08:36:09.059Z,15.20
2018-09-13T08:38:37.622Z,15.20
2018-09-13T08:41:06.775Z,15.40
2018-09-13T08:43:35.314Z,15.60
2018-09-13T08:46:04.052Z,15.80
2018-09-13T08:48:33.026Z,15.60
2018-09-13T08:51:01.500Z,15.50
2018-09-13T08:53:30.004Z,15.60
2018-09-13T08:55:58.535Z,15.40
2018-09-13T08:58:27.114Z,15.70
2018-09-13T09:00:55.814Z,15.60
2018-09-13T09:03:24.357Z,15.40
2018-09-13T09:05:52.874Z,15.50
2018-09-13T09:08:21.614Z,15.60
2018-09-13T09:10:50.230Z,16.20
2018-09-13T09:13:18.746Z,15.90
2018-09-13T09:15:47.323Z,15.80
2018-09-13T09:18:16.603Z,15.70
2018-09-13T09:20:45.381Z,15.70
2018-09-13T09:23:14.253Z,15.70
2018-09-13T09:25:43.007Z,15.60
2018-09-13T09:28:11.491Z,15.80
2018-09-13T09:30:40.317Z,15.90
2018-09-13T09:33:09.279Z,16.10
2018-09-13T09:35:37.924Z,16.30
2018-09-13T09:38:06.440Z,16.30
2018-09-13T09:40:35.050Z,16.30
2018-09-13T09:43:03.707Z,16.20
2018-09-13T09:45:33.058Z,16.20
2018-09-13T09:48:01.853Z,16.30
2018-09-13T09:50:30.351Z,16.20
2018-09-13T09:52:58.859Z,16.20
2018-09-13T09:55:27.653Z,16.30
2018-09-13T09:57:56.361Z,16.30
2018-09-13T10:00:30.401Z,16.50
2018-09-13T10:02:58.892Z,16.60
2018-09-13T10:05:27.607Z,16.40
2018-09-13T10:07:56.442Z,16.30
2018-09-13T10:10:24.985Z,16.40
2018-09-13T10:12:53.657Z,16.30
2018-09-13T10:15:27.439Z,16.50
2018-09-13T10:18:01.378Z,16.40
2018-09-13T10:20:35.303Z,16.40
2018-09-13T10:23:09.073Z,16.60
2018-09-13T10:25:43.259Z,16.70
2018-09-13T10:28:17.179Z,16.80
2018-09-13T10:30:50.953Z,16.80
2018-09-13T10:33:24.685Z,16.80
2018-09-13T10:35:58.521Z,16.50
2018-09-13T10:38:32.362Z,16.60
2018-09-13T10:41:06.316Z,16.80
2018-09-13T10:43:40.785Z,16.80
2018-09-13T10:46:15.143Z,16.90
2018-09-13T10:48:49.244Z,17.00
2018-09-13T10:51:26.061Z,16.70
2018-09-13T10:54:03.888Z,16.50
2018-09-13T10:56:32.597Z,16.70
2018-09-13T10:59:01.184Z,16.70
2018-09-13T11:01:29.897Z,16.80
2018-09-13T11:03:58.455Z,16.70
2018-09-13T11:06:26.998Z,16.80
2018-09-13T11:08:55.450Z,16.90
2018-09-13T11:11:24.017Z,16.90
2018-09-13T11:13:53.186Z,17.00
2018-09-13T11:16:22.102Z,17.00
2018-09-13T11:18:50.634Z,17.20
2018-09-13T11:21:19.266Z,17.30
2018-09-13T11:23:47.893Z,17.20
2018-09-13T11:26:16.391Z,17.20
2018-09-13T11:28:44.966Z,17.60
2018-09-13T11:31:13.648Z,17.40
2018-09-13T11:33:42.160Z,17.30
2018-09-13T11:36:10.778Z,17.40
2018-09-13T11:38:39.297Z,17.40
2018-09-13T11:41:07.949Z,17.50
2018-09-13T11:43:36.902Z,17.40
2018-09-13T11:46:05.384Z,17.60
2018-09-13T11:48:33.898Z,17.70
2018-09-13T11:51:02.430Z,17.60
2018-09-13T11:53:31.217Z,17.70
2018-09-13T11:55:59.721Z,17.70
2018-09-13T11:58:28.277Z,17.60
2018-09-13T12:00:56.995Z,17.60
2018-09-13T12:03:25.572Z,17.60
2018-09-13T12:05:54.109Z,17.70
2018-09-13T12:08:22.837Z,17.80
2018-09-13T12:10:51.369Z,17.80
2018-09-13T12:13:19.835Z,18.00
2018-09-13T12:15:48.563Z,18.00
2018-09-13T12:18:17.457Z,18.10
2018-09-13T12:20:46.023Z,18.00
2018-09-13T12:23:14.554Z,18.10
2018-09-13T12:25:43.079Z,18.10
2018-09-13T12:28:11.882Z,18.00
2018-09-13T12:30:40.545Z,18.10
2018-09-13T12:33:09.154Z,18.10
2018-09-13T12:35:38.183Z,18.30
2018-09-13T12:38:07.163Z,18.30
2018-09-13T12:40:35.944Z,18.10
2018-09-13T12:43:04.426Z,18.20
2018-09-13T12:45:33.479Z,18.10
2018-09-13T12:48:02.167Z,18.10
2018-09-13T12:50:30.663Z,18.10
2018-09-13T12:52:59.125Z,18.00
2018-09-13T12:55:31.828Z,18.00
2018-09-13T12:58:00.668Z,18.20
2018-09-13T13:00:29.207Z,18.20
2018-09-13T13:02:57.706Z,18.10
2018-09-13T13:05:26.168Z,18.20
2018-09-13T13:07:54.692Z,18.20
2018-09-13T13:10:23.199Z,18.30
2018-09-13T13:12:51.686Z,18.30
2018-09-13T13:15:20.190Z,18.40
2018-09-13T13:17:48.916Z,18.40
2018-09-13T13:20:17.462Z,18.30
2018-09-13T13:22:46.828Z,18.30
2018-09-13T13:25:15.340Z,18.20
2018-09-13T13:27:43.886Z,18.20
2018-09-13T13:30:12.359Z,18.10
2018-09-13T13:32:40.939Z,18.20
2018-09-13T13:35:09.440Z,18.30
2018-09-13T13:37:38.704Z,18.30
2018-09-13T13:40:07.345Z,18.40
2018-09-13T13:42:35.892Z,18.30
2018-09-13T13:45:04.431Z,18.40
2018-09-13T13:47:32.970Z,18.40
2018-09-13T13:50:01.420Z,18.50
2018-09-13T13:52:29.891Z,18.60
2018-09-13T13:54:58.339Z,18.50
2018-09-13T13:57:26.893Z,18.60
2018-09-13T13:59:55.479Z,18.50
2018-09-13T14:02:23.881Z,18.40
2018-09-13T14:04:52.378Z,18.30
2018-09-13T14:07:21.030Z,18.40
2018-09-13T14:09:49.746Z,18.50
2018-09-13T14:12:18.152Z,18.40
2018-09-13T14:14:47.005Z,18.40
2018-09-13T14:17:15.508Z,18.10
2018-09-13T14:19:43.964Z,18.10
2018-09-13T14:22:12.508Z,18.20
2018-09-13T14:24:41.050Z,18.10
2018-09-13T14:27:09.595Z,18.10
2018-09-13T14:29:38.281Z,18.00
2018-09-13T14:32:07.153Z,18.00
2018-09-13T14:34:35.701Z,18.00
2018-09-13T14:37:04.229Z,17.90
2018-09-13T14:39:32.859Z,17.80
2018-09-13T14:42:01.943Z,18.00
2018-09-13T14:44:30.426Z,18.10
2018-09-13T14:46:59.366Z,18.00
2018-09-13T14:49:27.876Z,18.00
2018-09-13T14:51:56.489Z,18.00
2018-09-13T14:54:25.013Z,17.80
2018-09-13T14:56:53.798Z,17.70
2018-09-13T14:59:22.738Z,17.70
2018-09-13T15:01:51.511Z,18.00
2018-09-13T15:04:20.181Z,17.90
2018-09-13T15:06:49.530Z,17.80
2018-09-13T15:09:18.462Z,17.80
2018-09-13T15:11:46.975Z,17.80
2018-09-13T15:14:15.545Z,17.80
2018-09-13T15:16:44.055Z,17.80
2018-09-13T15:19:15.048Z,17.90
2018-09-13T15:21:43.562Z,17.90
2018-09-13T15:24:12.324Z,17.90
2018-09-13T15:26:41.012Z,17.80
2018-09-13T15:29:09.651Z,17.80
2018-09-13T15:31:38.366Z,17.70
2018-09-13T15:34:07.170Z,17.60
2018-09-13T15:36:36.036Z,17.60
2018-09-13T15:39:07.519Z,17.50
2018-09-13T15:41:36.190Z,17.40
2018-09-13T15:44:08.077Z,17.40
2018-09-13T15:46:36.844Z,17.40
2018-09-13T15:49:07.058Z,17.30
2018-09-13T15:51:36.014Z,17.50
2018-09-13T15:54:04.994Z,17.50
2018-09-13T15:56:33.769Z,17.60
2018-09-13T15:59:02.477Z,17.60
2018-09-13T16:01:31.179Z,17.50
2018-09-13T16:03:59.910Z,17.50
2018-09-13T16:06:28.687Z,17.40
2018-09-13T16:08:57.357Z,17.20
2018-09-13T16:11:26.060Z,17.10
2018-09-13T16:13:54.866Z,17.10
2018-09-13T16:16:23.648Z,17.20
2018-09-13T16:18:52.428Z,17.20
2018-09-13T16:21:21.148Z,17.20
2018-09-13T16:23:49.771Z,17.10
2018-09-13T16:26:18.671Z,17.10
2018-09-13T16:28:47.384Z,17.00
2018-09-13T16:31:16.279Z,17.00
2018-09-13T16:33:44.995Z,17.00
2018-09-13T16:36:30.995Z,17.00
2018-09-13T16:39:06.407Z,16.90
2018-09-13T16:41:41.531Z,17.00
2018-09-13T16:44:14.422Z,16.80
2018-09-13T16:48:50.472Z,16.70
2018-09-13T16:51:19.101Z,16.70
2018-09-13T16:53:47.839Z,16.70
2018-09-13T16:56:16.546Z,16.80
2018-09-13T16:58:45.350Z,16.80
2018-09-13T17:01:14.093Z,16.70
2018-09-13T17:03:42.863Z,16.90
2018-09-13T17:06:11.698Z,16.70
2018-09-13T17:08:41.654Z,16.60
2018-09-13T17:11:10.307Z,16.50
2018-09-13T17:13:39.078Z,16.40
2018-09-13T17:16:07.777Z,16.50
2018-09-13T17:18:36.553Z,16.40
2018-09-13T17:21:05.301Z,16.30
2018-09-13T17:23:34.071Z,16.20
2018-09-13T17:26:02.788Z,16.10
2018-09-13T17:43:19.578Z,16.00
2018-09-13T17:45:50.739Z,15.60
2018-09-13T17:48:23.093Z,15.60
2018-09-13T17:50:54.364Z,15.50
2018-09-13T17:53:27.112Z,15.50
2018-09-13T17:55:57.799Z,15.40
2018-09-13T17:58:33.409Z,15.30
2018-09-13T18:04:09.285Z,15.10
2018-09-13T18:06:42.605Z,15.00
2018-09-13T18:09:13.609Z,15.00
2018-09-13T18:28:59.472Z,14.50
2018-09-13T18:31:28.557Z,14.40
2018-09-13T18:33:57.321Z,14.30
2018-09-13T18:36:26.201Z,14.30
2018-09-13T18:38:55.175Z,14.30
2018-09-13T18:41:24.096Z,14.20
2018-09-13T18:43:52.992Z,14.10
2018-09-13T18:46:21.798Z,14.10
2018-09-13T18:48:50.621Z,14.00
2018-09-13T18:51:19.466Z,14.20
2018-09-13T18:53:48.231Z,13.90
2018-09-13T18:56:17.034Z,13.80
2018-09-13T18:58:45.862Z,13.80
2018-09-13T19:01:14.694Z,13.80
2018-09-13T19:03:43.498Z,13.70
2018-09-13T19:06:12.252Z,13.60
2018-09-13T19:08:41.005Z,13.60
2018-09-13T19:11:10.725Z,13.60
2018-09-13T19:13:39.556Z,13.50
2018-09-13T19:16:08.559Z,13.40
2018-09-13T19:18:37.221Z,13.40
2018-09-13T19:21:06.132Z,13.30
2018-09-13T19:23:34.855Z,13.50
2018-09-13T19:26:03.617Z,13.30
2018-09-13T19:28:32.453Z,13.30
2018-09-13T19:31:01.259Z,13.20
2018-09-13T19:33:30.038Z,13.40
2018-09-13T19:35:58.758Z,13.10
2018-09-13T19:38:27.528Z,13.10
2018-09-13T19:40:56.245Z,13.10
2018-09-13T19:43:25.012Z,12.80
2018-09-13T19:45:53.704Z,13.00
2018-09-13T19:48:22.446Z,13.00
2018-09-13T19:50:51.238Z,13.00
2018-09-13T19:53:19.933Z,13.00
2018-09-13T19:55:48.855Z,13.00
2018-09-13T19:58:17.481Z,13.00
2018-09-13T20:00:46.358Z,12.80
2018-09-13T20:03:15.087Z,12.80
2018-09-13T20:05:43.718Z,12.90
2018-09-13T20:08:12.468Z,12.80
2018-09-13T20:10:41.274Z,13.10
2018-09-13T20:13:10.009Z,12.80
2018-09-13T20:15:38.815Z,13.10
2018-09-13T20:18:11.208Z,12.80
2018-09-13T20:20:40.056Z,12.80
2018-09-13T20:23:08.792Z,12.70
2018-09-13T20:25:37.500Z,12.70
2018-09-13T20:28:06.189Z,12.70
2018-09-13T20:30:34.950Z,12.70
2018-09-13T20:33:03.793Z,12.60
2018-09-13T20:35:32.474Z,12.40
2018-09-13T20:38:01.123Z,12.50
2018-09-13T20:40:29.855Z,12.80
2018-09-13T20:42:58.538Z,12.80
2018-09-13T20:45:27.249Z,12.50
2018-09-13T20:47:55.995Z,12.50
2018-09-13T20:50:24.741Z,12.40
2018-09-13T20:52:53.546Z,12.50
2018-09-13T20:55:22.202Z,12.50
2018-09-13T20:57:50.896Z,12.40
2018-09-13T21:00:20.481Z,12.50
2018-09-13T21:02:50.869Z,12.40
2018-09-13T21:05:20.078Z,12.50
2018-09-13T21:07:48.728Z,12.70
2018-09-13T21:10:17.379Z,12.30
2018-09-13T21:12:46.171Z,12.20
2018-09-13T21:15:14.821Z,12.20
2018-09-13T21:17:43.476Z,12.10
2018-09-13T21:20:12.374Z,12.30
2018-09-13T21:22:41.129Z,12.10
2018-09-13T21:25:13.229Z,12.10
2018-09-13T21:27:41.900Z,12.10
2018-09-13T21:30:10.614Z,12.20
2018-09-13T21:32:39.320Z,12.40
2018-09-13T21:35:07.950Z,12.60
2018-09-13T21:37:36.637Z,12.30
2018-09-13T21:40:05.297Z,12.00
2018-09-13T21:42:33.975Z,12.10
2018-09-13T21:45:02.695Z,12.10
2018-09-13T21:47:31.407Z,12.00
2018-09-13T21:50:00.036Z,12.00
2018-09-13T21:52:28.758Z,12.00
2018-09-13T21:54:57.414Z,12.20
2018-09-13T21:57:26.060Z,11.90
2018-09-13T21:59:54.674Z,12.00
2018-09-13T22:02:23.404Z,12.00
2018-09-13T22:04:52.152Z,12.10
2018-09-13T22:07:20.862Z,12.10
2018-09-13T22:09:49.598Z,11.80
2018-09-13T22:12:18.275Z,11.80
2018-09-13T22:14:46.974Z,11.90
2018-09-13T22:17:15.604Z,11.70
2018-09-13T22:19:44.186Z,11.60
2018-09-13T22:22:12.803Z,11.40
2018-09-13T22:24:41.464Z,11.30
2018-09-13T22:27:10.151Z,11.20
2018-09-13T22:29:38.827Z,11.40
2018-09-13T22:32:07.917Z,11.40
2018-09-13T22:34:36.595Z,11.30
2018-09-13T22:37:05.243Z,11.40
2018-09-13T22:39:33.948Z,11.50
2018-09-13T22:42:02.663Z,11.40
2018-09-13T22:44:35.542Z,11.40
2018-09-13T22:47:04.152Z,11.50
2018-09-13T22:49:32.837Z,11.50
2018-09-13T22:52:01.515Z,11.40
2018-09-13T22:54:30.154Z,11.30
2018-09-13T22:56:58.839Z,11.40
2018-09-13T22:59:27.712Z,11.50
2018-09-13T23:01:56.485Z,11.30
2018-09-13T23:04:25.131Z,11.40
2018-09-13T23:06:54.042Z,11.30
2018-09-13T23:09:22.725Z,11.40
2018-09-13T23:11:51.293Z,11.40
2018-09-13T23:14:31.819Z,11.30
2018-09-13T23:17:00.410Z,11.50
2018-09-13T23:19:29.031Z,11.60
2018-09-13T23:21:57.680Z,11.50
2018-09-13T23:24:26.344Z,11.30
2018-09-13T23:26:54.958Z,11.30
2018-09-13T23:29:23.524Z,11.40
2018-09-13T23:31:52.295Z,11.50
2018-09-13T23:34:20.908Z,11.50
2018-09-13T23:36:52.990Z,11.30
2018-09-13T23:39:21.740Z,11.30
2018-09-13T23:41:50.359Z,11.20
2018-09-13T23:44:18.950Z,11.30
2018-09-13T23:46:47.481Z,11.40
2018-09-13T23:49:16.102Z,11.30
2018-09-13T23:51:44.633Z,11.70
2018-09-13T23:54:13.256Z,11.70
2018-09-13T23:56:41.880Z,11.80
2018-09-13T23:59:17.624Z,11.60
